SIA323 EHAM-WSSS
Flight info
| Callsign | SIA323 |
|---|---|
| Flight time | N/A |
| Altitude | 35000 |
| Route | ARNEM L620 HMM DCT NOMKA L620 OMELO DCT PEPIK/N0481F370 DCT BUDOP DCT LUGEB DCT UDROS UM859 KARDE UN644 ROLIN DCT TAGAR DCT BT DCT BARAD M747 SUBUT T923 EDELU/N0484F390 T923 ERLEV M11 RODAR A909 LEMOD N644 DI A466 DPN L759 KKJ/N0487F410 L759 PUT B579 VPL Y503 RINBA Y507 MAKNA Y511 TOPOR A464 ARAMA DCT TEBUN LELIB3B |
| Aircraft | A359/H-SDE2E3GHIJ3J4J5LM1ORWXY/LB1D1 |
Departure
| Time | 2026-05-04 05:04 |
|---|---|
| Airport | Amsterdam Airport Schiphol (EHAM) |
Arrival
| Time | N/A |
|---|---|
| Airport | Singapore Changi Airport (WSSS) |
| Time | Latitude | Longitude | Altitude | Speed | Heading |
|---|---|---|---|---|---|
| 2026-05-04 04:50 | 52.31353 | 4.75574 | 5 ft | 0 kts | 86° |
| 2026-05-04 04:52 | 52.31353 | 4.75573 | 5 ft | 1 kts | 86° |
| 2026-05-04 04:53 | 52.31352 | 4.75532 | 5 ft | 4 kts | 93° |
| 2026-05-04 04:53 | 52.31353 | 4.75493 | 5 ft | 4 kts | 71° |
| 2026-05-04 04:53 | 52.31344 | 4.75466 | 8 ft | 4 kts | 42° |
| 2026-05-04 04:53 | 52.31328 | 4.75450 | 7 ft | 4 kts | 1° |
| 2026-05-04 04:54 | 52.31302 | 4.75453 | 7 ft | 3 kts | 355° |
| 2026-05-04 04:54 | 52.31299 | 4.75453 | 7 ft | 5 kts | 356° |
| 2026-05-04 04:57 | 52.31306 | 4.75453 | 7 ft | 4 kts | 356° |
| 2026-05-04 04:57 | 52.31360 | 4.75448 | 6 ft | 10 kts | 356° |
| 2026-05-04 04:58 | 52.31422 | 4.75509 | 5 ft | 12 kts | 66° |
| 2026-05-04 04:58 | 52.31434 | 4.75667 | 5 ft | 15 kts | 87° |
| 2026-05-04 04:58 | 52.31441 | 4.75840 | 5 ft | 16 kts | 86° |
| 2026-05-04 04:58 | 52.31448 | 4.76039 | 5 ft | 17 kts | 86° |
| 2026-05-04 04:59 | 52.31456 | 4.76240 | 5 ft | 18 kts | 86° |
| 2026-05-04 04:59 | 52.31463 | 4.76448 | 5 ft | 19 kts | 86° |
| 2026-05-04 04:59 | 52.31470 | 4.76667 | 5 ft | 20 kts | 87° |
| 2026-05-04 04:59 | 52.31478 | 4.76888 | 5 ft | 20 kts | 87° |
| 2026-05-04 05:00 | 52.31486 | 4.77118 | 5 ft | 19 kts | 83° |
| 2026-05-04 05:00 | 52.31552 | 4.77247 | 5 ft | 15 kts | 50° |
| 2026-05-04 05:00 | 52.31681 | 4.77562 | 5 ft | 18 kts | 58° |
| 2026-05-04 05:01 | 52.31773 | 4.77689 | 4 ft | 19 kts | 8° |
| 2026-05-04 05:01 | 52.31904 | 4.77702 | 5 ft | 19 kts | 3° |
| 2026-05-04 05:01 | 52.32027 | 4.77756 | 5 ft | 18 kts | 36° |
| 2026-05-04 05:01 | 52.32115 | 4.77897 | 5 ft | 17 kts | 61° |
| 2026-05-04 05:02 | 52.32090 | 4.78013 | 5 ft | 7 kts | 176° |
| 2026-05-04 05:02 | 52.32063 | 4.78010 | 5 ft | 0 kts | 183° |
| 2026-05-04 05:02 | 52.31925 | 4.77998 | 5 ft | 53 kts | 183° |
| 2026-05-04 05:03 | 52.31289 | 4.77939 | 5 ft | 128 kts | 183° |
| 2026-05-04 05:03 | 52.30193 | 4.77837 | 237 ft | 172 kts | 182° |
| 2026-05-04 05:04 | 52.26305 | 4.78018 | 2165 ft | 211 kts | 152° |
| 2026-05-04 05:04 | 52.25380 | 4.79930 | 2465 ft | 229 kts | 109° |
| 2026-05-04 05:04 | 52.25311 | 4.82567 | 2982 ft | 235 kts | 88° |
| 2026-05-04 05:06 | 52.25069 | 5.03305 | 6153 ft | 283 kts | 96° |
| 2026-05-04 05:06 | 52.24979 | 5.06499 | 6702 ft | 286 kts | 96° |
| 2026-05-04 05:06 | 52.24885 | 5.09790 | 7263 ft | 288 kts | 96° |
| 2026-05-04 05:07 | 52.24791 | 5.13029 | 7801 ft | 290 kts | 96° |
| 2026-05-04 05:07 | 52.24693 | 5.16333 | 8390 ft | 292 kts | 96° |
| 2026-05-04 05:07 | 52.24594 | 5.19656 | 8962 ft | 295 kts | 96° |
| 2026-05-04 05:09 | 52.23224 | 5.49239 | 11643 ft | 371 kts | 98° |
| 2026-05-04 05:09 | 52.22830 | 5.53436 | 11856 ft | 378 kts | 109° |
| 2026-05-04 05:10 | 52.21969 | 5.57507 | 12217 ft | 381 kts | 115° |
| 2026-05-04 05:10 | 52.20986 | 5.61537 | 12649 ft | 384 kts | 115° |
| 2026-05-04 05:10 | 52.19987 | 5.65579 | 13078 ft | 387 kts | 115° |
| 2026-05-04 05:10 | 52.18981 | 5.69667 | 13509 ft | 390 kts | 115° |
| 2026-05-04 05:11 | 52.17973 | 5.73779 | 13922 ft | 392 kts | 115° |
| 2026-05-04 05:11 | 52.16956 | 5.77929 | 14314 ft | 395 kts | 115° |
| 2026-05-04 05:11 | 52.15938 | 5.82088 | 14705 ft | 397 kts | 115° |
| 2026-05-04 05:11 | 52.14911 | 5.86278 | 15108 ft | 399 kts | 115° |
| 2026-05-04 05:12 | 52.13890 | 5.90433 | 15495 ft | 402 kts | 115° |
| 2026-05-04 05:12 | 52.12850 | 5.94662 | 15883 ft | 404 kts | 115° |
| 2026-05-04 05:12 | 52.11799 | 5.98927 | 16286 ft | 406 kts | 115° |
| 2026-05-04 05:12 | 52.10747 | 6.03193 | 16658 ft | 409 kts | 115° |
| 2026-05-04 05:13 | 52.09761 | 6.07549 | 17041 ft | 413 kts | 109° |
| 2026-05-04 05:13 | 52.09056 | 6.12113 | 17432 ft | 417 kts | 105° |
| 2026-05-04 05:13 | 52.08511 | 6.16763 | 17814 ft | 420 kts | 102° |
| 2026-05-04 05:13 | 52.08045 | 6.21484 | 18179 ft | 423 kts | 101° |
| 2026-05-04 05:14 | 52.07604 | 6.26240 | 18503 ft | 426 kts | 101° |
| 2026-05-04 05:14 | 52.07159 | 6.30996 | 18812 ft | 428 kts | 101° |
| 2026-05-04 05:14 | 52.06699 | 6.35734 | 19133 ft | 430 kts | 102° |
| 2026-05-04 05:14 | 52.06214 | 6.40534 | 19447 ft | 432 kts | 102° |
| 2026-05-04 05:15 | 52.05712 | 6.45366 | 19752 ft | 434 kts | 102° |
| 2026-05-04 05:15 | 52.05198 | 6.50206 | 20056 ft | 436 kts | 102° |
| 2026-05-04 05:15 | 52.04677 | 6.55067 | 20361 ft | 438 kts | 102° |
| 2026-05-04 05:15 | 52.04149 | 6.59963 | 20655 ft | 440 kts | 102° |
| 2026-05-04 05:16 | 52.03618 | 6.64874 | 20949 ft | 443 kts | 102° |
| 2026-05-04 05:16 | 52.03083 | 6.69807 | 21229 ft | 445 kts | 102° |
| 2026-05-04 05:16 | 52.02543 | 6.74766 | 21544 ft | 447 kts | 102° |
| 2026-05-04 05:16 | 52.01983 | 6.79739 | 21835 ft | 449 kts | 104° |
| 2026-05-04 05:17 | 52.01281 | 6.84686 | 22128 ft | 450 kts | 107° |
| 2026-05-04 05:17 | 52.00480 | 6.89610 | 22422 ft | 452 kts | 108° |
| 2026-05-04 05:17 | 51.99642 | 6.94528 | 22714 ft | 454 kts | 108° |
| 2026-05-04 05:17 | 51.98810 | 6.99412 | 23001 ft | 456 kts | 108° |
| 2026-05-04 05:18 | 51.97975 | 7.04398 | 23287 ft | 458 kts | 107° |
| 2026-05-04 05:18 | 51.97149 | 7.09399 | 23559 ft | 461 kts | 107° |
| 2026-05-04 05:18 | 51.96319 | 7.14431 | 23812 ft | 462 kts | 108° |
| 2026-05-04 05:18 | 51.95424 | 7.19454 | 24059 ft | 464 kts | 109° |
| 2026-05-04 05:19 | 51.94483 | 7.24464 | 24307 ft | 466 kts | 110° |
| 2026-05-04 05:19 | 51.93518 | 7.29500 | 24581 ft | 467 kts | 110° |
| 2026-05-04 05:19 | 51.92556 | 7.34518 | 24826 ft | 469 kts | 110° |
| 2026-05-04 05:19 | 51.91589 | 7.39593 | 25077 ft | 471 kts | 110° |
| 2026-05-04 05:20 | 51.90626 | 7.44678 | 25330 ft | 473 kts | 110° |
| 2026-05-04 05:20 | 51.89675 | 7.49721 | 25575 ft | 475 kts | 110° |
| 2026-05-04 05:20 | 51.88710 | 7.54841 | 25826 ft | 477 kts | 110° |
| 2026-05-04 05:20 | 51.87741 | 7.59983 | 26085 ft | 479 kts | 110° |
| 2026-05-04 05:21 | 51.86762 | 7.65165 | 26340 ft | 481 kts | 110° |
| 2026-05-04 05:21 | 51.85778 | 7.70353 | 26603 ft | 483 kts | 110° |
| 2026-05-04 05:21 | 51.84848 | 7.75570 | 26860 ft | 486 kts | 107° |
| 2026-05-04 05:21 | 51.84080 | 7.80927 | 27129 ft | 489 kts | 105° |
| 2026-05-04 05:22 | 51.83400 | 7.86344 | 27384 ft | 492 kts | 104° |
| 2026-05-04 05:22 | 51.82741 | 7.91784 | 27647 ft | 494 kts | 104° |
| 2026-05-04 05:22 | 51.82070 | 7.97224 | 27912 ft | 496 kts | 104° |
| 2026-05-04 05:22 | 51.81371 | 8.02699 | 28191 ft | 498 kts | 105° |
| 2026-05-04 05:23 | 51.80649 | 8.08165 | 28457 ft | 500 kts | 105° |
| 2026-05-04 05:23 | 51.79903 | 8.13675 | 28694 ft | 502 kts | 105° |
| 2026-05-04 05:23 | 51.79146 | 8.19181 | 28969 ft | 503 kts | 105° |
| 2026-05-04 05:23 | 51.78381 | 8.24699 | 29229 ft | 505 kts | 105° |
| 2026-05-04 05:24 | 51.77616 | 8.30193 | 29467 ft | 507 kts | 105° |
| 2026-05-04 05:24 | 51.76838 | 8.35764 | 29734 ft | 509 kts | 105° |
| 2026-05-04 05:24 | 51.76056 | 8.41352 | 29970 ft | 511 kts | 105° |
| 2026-05-04 05:24 | 51.75272 | 8.46940 | 30185 ft | 513 kts | 105° |
| 2026-05-04 05:25 | 51.74481 | 8.52564 | 30405 ft | 514 kts | 105° |
| 2026-05-04 05:25 | 51.73686 | 8.58199 | 30714 ft | 513 kts | 105° |
| 2026-05-04 05:25 | 51.72892 | 8.63808 | 31068 ft | 511 kts | 106° |
| 2026-05-04 05:25 | 51.72101 | 8.69378 | 31404 ft | 509 kts | 106° |
| 2026-05-04 05:26 | 51.71308 | 8.74935 | 31701 ft | 508 kts | 106° |
| 2026-05-04 05:26 | 51.70512 | 8.80485 | 32012 ft | 507 kts | 106° |
| 2026-05-04 05:26 | 51.69717 | 8.86017 | 32327 ft | 506 kts | 106° |
| 2026-05-04 05:26 | 51.68922 | 8.91523 | 32650 ft | 505 kts | 106° |
| 2026-05-04 05:27 | 51.68135 | 8.96960 | 32952 ft | 504 kts | 106° |
| 2026-05-04 05:28 | 51.62797 | 9.33304 | 34747 ft | 499 kts | 106° |
| 2026-05-04 05:29 | 51.61988 | 9.38740 | 34942 ft | 500 kts | 106° |
| 2026-05-04 05:29 | 51.61173 | 9.44186 | 34986 ft | 503 kts | 106° |
| 2026-05-04 05:29 | 51.59532 | 9.55114 | 34988 ft | 506 kts | 106° |
| 2026-05-04 05:31 | 51.52794 | 9.99257 | 34978 ft | 510 kts | 108° |
| 2026-05-04 05:32 | 51.51075 | 10.10319 | 34980 ft | 510 kts | 108° |
| 2026-05-04 05:33 | 51.49354 | 10.21326 | 34982 ft | 510 kts | 108° |